createdAt,value
2024-05-09T00:01:21.498Z,99.90
2024-05-09T00:03:51.525Z,99.90
2024-05-09T00:06:22.314Z,99.90
2024-05-09T00:08:54.973Z,99.90
2024-05-09T00:11:25.340Z,99.90
2024-05-09T00:13:55.798Z,99.90
2024-05-09T00:16:25.774Z,99.90
2024-05-09T00:18:56.715Z,99.90
2024-05-09T00:21:26.684Z,99.90
2024-05-09T00:23:59.638Z,99.90
2024-05-09T00:26:29.877Z,99.90
2024-05-09T00:29:00.295Z,99.90
2024-05-09T00:31:31.231Z,99.90
2024-05-09T00:34:01.530Z,99.90
2024-05-09T00:36:31.620Z,99.90
2024-05-09T00:39:04.578Z,99.90
2024-05-09T00:41:34.458Z,99.90
2024-05-09T00:44:04.779Z,99.90
2024-05-09T00:46:35.305Z,99.90
2024-05-09T00:49:06.238Z,99.90
2024-05-09T00:51:36.965Z,99.90
2024-05-09T00:54:11.058Z,99.90
2024-05-09T00:56:42.135Z,99.90
2024-05-09T00:59:12.455Z,99.90
2024-05-09T01:01:44.482Z,99.90
2024-05-09T01:04:15.093Z,99.90
2024-05-09T01:06:45.592Z,99.90
2024-05-09T01:09:18.414Z,99.90
2024-05-09T01:11:48.565Z,99.90
2024-05-09T01:14:18.655Z,99.90
2024-05-09T01:16:48.604Z,99.90
2024-05-09T01:19:29.712Z,99.90
2024-05-09T01:22:00.195Z,99.90
2024-05-09T01:24:32.959Z,99.90
2024-05-09T01:27:03.541Z,99.90
2024-05-09T01:29:33.936Z,99.90
2024-05-09T01:32:05.147Z,99.90
2024-05-09T01:34:35.512Z,99.90
2024-05-09T01:37:05.688Z,99.90
2024-05-09T01:39:39.462Z,99.90
2024-05-09T01:42:10.314Z,99.90
2024-05-09T01:44:41.130Z,99.90
2024-05-09T01:47:11.419Z,99.90
2024-05-09T01:49:43.245Z,99.90
2024-05-09T01:52:13.312Z,99.90
2024-05-09T01:54:46.322Z,99.90
2024-05-09T01:57:16.831Z,99.90
2024-05-09T01:59:46.807Z,99.90
2024-05-09T02:02:17.256Z,99.90
2024-05-09T02:04:50.142Z,99.90
2024-05-09T02:07:20.627Z,99.90
2024-05-09T02:09:55.435Z,99.90
2024-05-09T02:12:25.482Z,99.90
2024-05-09T02:14:55.814Z,99.90
2024-05-09T02:17:26.255Z,99.90
2024-05-09T02:19:56.937Z,99.90
2024-05-09T02:22:27.047Z,99.90
2024-05-09T02:24:59.819Z,99.90
2024-05-09T02:27:29.899Z,99.90
2024-05-09T02:29:59.741Z,99.90
2024-05-09T02:32:30.273Z,99.90
2024-05-09T02:35:00.487Z,99.90
2024-05-09T02:37:31.030Z,99.90
2024-05-09T02:40:00.894Z,99.90
2024-05-09T02:42:30.921Z,99.90
2024-05-09T02:44:58.108Z,99.90
2024-05-09T02:47:28.344Z,99.90
2024-05-09T02:49:56.616Z,99.90
2024-05-09T02:52:26.570Z,99.90
2024-05-09T02:54:53.978Z,99.90
2024-05-09T02:57:26.723Z,99.90
2024-05-09T02:59:54.080Z,99.90
2024-05-09T03:02:24.566Z,99.90
2024-05-09T03:04:52.535Z,99.90
2024-05-09T03:07:22.748Z,99.90
2024-05-09T03:09:50.071Z,99.90
2024-05-09T03:12:20.477Z,99.90
2024-05-09T03:14:53.123Z,99.90
2024-05-09T03:17:24.814Z,99.90
2024-05-09T03:19:52.475Z,99.90
2024-05-09T03:22:22.798Z,99.90
2024-05-09T03:24:50.758Z,99.90
2024-05-09T03:27:21.397Z,99.90
2024-05-09T03:29:49.635Z,99.90
2024-05-09T03:32:22.953Z,99.90
2024-05-09T03:34:50.813Z,99.90
2024-05-09T03:37:20.760Z,99.90
2024-05-09T03:39:51.335Z,99.90
2024-05-09T03:42:21.507Z,99.90
2024-05-09T03:44:53.679Z,99.90
2024-05-09T03:47:23.784Z,99.90
2024-05-09T03:49:54.494Z,99.90
2024-05-09T03:52:24.403Z,99.90
2024-05-09T03:54:52.118Z,99.90
2024-05-09T03:57:21.976Z,99.90
2024-05-09T03:59:50.099Z,99.90
2024-05-09T04:02:20.185Z,99.90
2024-05-09T04:04:50.728Z,99.90
2024-05-09T04:07:20.791Z,99.90
2024-05-09T04:09:48.046Z,99.90
2024-05-09T04:12:18.413Z,99.90
2024-05-09T04:14:46.067Z,99.90
2024-05-09T04:17:16.077Z,99.90
2024-05-09T04:19:43.990Z,99.90
2024-05-09T04:22:35.066Z,99.90
2024-05-09T04:25:02.384Z,99.90
2024-05-09T04:27:32.335Z,99.90
2024-05-09T04:29:59.719Z,99.90
2024-05-09T04:32:30.192Z,99.90
2024-05-09T04:34:57.657Z,99.90
2024-05-09T04:37:30.184Z,99.90
2024-05-09T04:40:00.595Z,99.90
2024-05-09T04:42:31.125Z,99.90
2024-05-09T04:44:58.875Z,99.90
2024-05-09T04:47:28.811Z,99.90
2024-05-09T04:49:57.128Z,99.90
2024-05-09T04:52:27.425Z,99.90
2024-05-09T04:54:56.148Z,99.90
2024-05-09T04:57:30.956Z,99.90
2024-05-09T04:59:59.086Z,99.90
2024-05-09T05:02:29.090Z,99.90
2024-05-09T05:04:57.483Z,99.90
2024-05-09T05:07:27.749Z,99.90
2024-05-09T05:09:55.401Z,99.90
2024-05-09T05:12:41.470Z,99.90
2024-05-09T05:15:14.126Z,99.90
2024-05-09T05:17:44.373Z,99.90
2024-05-09T05:20:15.267Z,99.90
2024-05-09T05:22:48.140Z,99.90
2024-05-09T05:25:15.674Z,99.90
2024-05-09T05:27:45.567Z,99.90
2024-05-09T05:30:24.757Z,99.90
2024-05-09T05:32:58.899Z,99.90
2024-05-09T05:35:27.830Z,99.90
2024-05-09T05:37:57.890Z,99.90
2024-05-09T05:40:33.113Z,99.90
2024-05-09T05:43:07.704Z,99.90
2024-05-09T05:45:40.450Z,99.90
2024-05-09T05:48:08.783Z,99.90
2024-05-09T05:50:39.226Z,99.90
2024-05-09T05:53:08.856Z,99.90
2024-05-09T05:55:39.720Z,99.90
2024-05-09T05:58:10.020Z,99.90
2024-05-09T06:00:44.846Z,99.90
2024-05-09T06:03:13.681Z,99.90
2024-05-09T06:05:46.017Z,99.90
2024-05-09T06:08:13.869Z,99.90
2024-05-09T06:10:44.289Z,99.90
2024-05-09T06:13:13.720Z,99.90
2024-05-09T06:15:46.946Z,99.90
2024-05-09T06:18:15.294Z,99.90
2024-05-09T06:20:45.856Z,99.90
2024-05-09T06:23:14.874Z,99.90
2024-05-09T06:25:45.031Z,99.90
2024-05-09T06:28:13.337Z,99.90
2024-05-09T06:30:46.603Z,99.90
2024-05-09T06:33:15.804Z,99.90
2024-05-09T06:35:47.263Z,99.90
2024-05-09T06:38:14.750Z,99.90
2024-05-09T06:40:45.094Z,99.90
2024-05-09T06:43:14.033Z,99.90
2024-05-09T06:45:48.546Z,99.90
2024-05-09T06:48:19.593Z,99.90
2024-05-09T06:50:50.867Z,99.90
2024-05-09T06:53:22.830Z,99.90
2024-05-09T06:55:53.319Z,99.90
2024-05-09T06:58:21.048Z,99.90
2024-05-09T07:00:54.198Z,99.90
2024-05-09T07:03:22.027Z,99.90
2024-05-09T07:05:52.344Z,99.90
2024-05-09T07:08:20.347Z,99.90
2024-05-09T07:10:51.086Z,99.90
2024-05-09T07:13:18.944Z,99.90
2024-05-09T07:15:49.307Z,99.90
2024-05-09T07:18:20.407Z,99.90
2024-05-09T07:20:51.476Z,99.90
2024-05-09T07:23:19.758Z,99.90
2024-05-09T07:25:49.733Z,99.90
2024-05-09T07:28:19.291Z,99.90
2024-05-09T07:30:50.419Z,99.90
2024-05-09T07:33:23.392Z,99.90
2024-05-09T07:35:55.116Z,99.90
2024-05-09T07:38:22.795Z,99.90
2024-05-09T07:40:53.733Z,99.90
2024-05-09T07:43:20.990Z,99.90
2024-05-09T07:45:54.312Z,99.90
2024-05-09T07:50:00.150Z,99.90
2024-05-09T07:53:51.267Z,99.90
2024-05-09T07:56:25.411Z,99.90
2024-05-09T07:58:53.795Z,99.90
2024-05-09T08:01:26.370Z,99.90
2024-05-09T08:03:57.203Z,99.90
2024-05-09T08:06:29.120Z,99.90
2024-05-09T08:08:57.842Z,99.90
2024-05-09T08:11:30.075Z,99.90
2024-05-09T08:13:57.957Z,99.90
2024-05-09T08:16:28.176Z,99.90
2024-05-09T08:18:58.291Z,99.90
2024-05-09T08:21:29.659Z,99.90
2024-05-09T08:23:57.257Z,99.90
2024-05-09T08:26:27.479Z,99.90
2024-05-09T08:28:55.103Z,99.90
2024-05-09T08:31:25.540Z,99.90
2024-05-09T08:33:55.047Z,99.90
2024-05-09T08:36:28.045Z,99.90
2024-05-09T08:38:56.133Z,99.90
2024-05-09T08:41:26.146Z,99.90
2024-05-09T08:43:54.679Z,99.90
2024-05-09T08:46:25.343Z,99.90
2024-05-09T08:48:56.635Z,99.90
2024-05-09T08:51:30.058Z,99.90
2024-05-09T08:53:57.441Z,99.90
2024-05-09T08:56:31.364Z,99.90
2024-05-09T08:59:02.066Z,99.90
2024-05-09T09:01:35.768Z,99.90
2024-05-09T09:04:05.722Z,99.90
2024-05-09T09:06:40.251Z,99.90
2024-05-09T09:09:10.299Z,99.90
2024-05-09T09:11:40.717Z,99.90
2024-05-09T09:14:10.777Z,99.90
2024-05-09T09:16:38.225Z,99.90
2024-05-09T09:19:08.786Z,99.90
2024-05-09T09:21:39.509Z,99.90
2024-05-09T09:24:11.028Z,99.90
2024-05-09T09:26:41.624Z,99.90
2024-05-09T09:29:09.055Z,99.90
2024-05-09T09:31:39.873Z,99.90
2024-05-09T09:34:09.946Z,99.90
2024-05-09T09:36:46.225Z,99.90
2024-05-09T09:39:18.731Z,99.90
2024-05-09T09:41:51.637Z,99.90
2024-05-09T09:44:22.211Z,99.90
2024-05-09T09:46:57.050Z,99.90
2024-05-09T09:49:25.891Z,99.90
2024-05-09T09:52:00.423Z,99.90
2024-05-09T09:54:29.784Z,99.90
2024-05-09T09:57:01.026Z,99.90
2024-05-09T09:59:30.177Z,99.90
2024-05-09T10:02:01.147Z,99.90
2024-05-09T10:04:28.526Z,99.90
2024-05-09T10:07:11.369Z,99.90
2024-05-09T10:09:39.306Z,99.90
2024-05-09T10:12:13.751Z,99.90
2024-05-09T10:14:48.387Z,99.90
2024-05-09T10:17:18.625Z,99.90
2024-05-09T10:19:46.982Z,99.90
2024-05-09T10:22:31.191Z,99.90
2024-05-09T10:25:05.891Z,99.90
2024-05-09T10:27:36.748Z,99.90
2024-05-09T10:30:11.526Z,99.90
2024-05-09T10:32:45.103Z,99.90
2024-05-09T10:35:15.061Z,99.90
2024-05-09T10:37:51.088Z,99.90
2024-05-09T10:40:26.378Z,99.90
2024-05-09T10:43:06.328Z,99.90
2024-05-09T10:45:36.028Z,99.90
2024-05-09T10:48:06.886Z,99.90
2024-05-09T10:50:35.562Z,99.90
2024-05-09T10:53:08.740Z,99.90
2024-05-09T10:55:36.338Z,99.90
2024-05-09T10:58:07.252Z,99.90
2024-05-09T11:00:36.522Z,99.90
2024-05-09T11:03:08.096Z,99.90
2024-05-09T11:05:36.495Z,99.90
2024-05-09T11:08:10.370Z,99.90
2024-05-09T11:10:38.656Z,99.90
2024-05-09T11:13:09.138Z,99.90
2024-05-09T11:15:40.115Z,99.90
2024-05-09T11:18:11.531Z,99.90
2024-05-09T11:20:39.145Z,99.90
2024-05-09T11:23:11.924Z,99.90
2024-05-09T11:25:39.783Z,99.90
2024-05-09T11:28:10.667Z,99.90
2024-05-09T11:30:38.284Z,99.90
2024-05-09T11:33:09.291Z,99.90
2024-05-09T11:35:36.963Z,99.60
2024-05-09T11:38:07.588Z,99.90
2024-05-09T11:40:38.632Z,99.20
2024-05-09T11:43:09.542Z,99.60
2024-05-09T11:45:37.341Z,98.00
2024-05-09T11:48:08.512Z,98.00
2024-05-09T11:50:36.514Z,96.30
2024-05-09T11:53:06.891Z,96.10
2024-05-09T11:55:36.442Z,95.30
2024-05-09T11:58:12.431Z,95.50
2024-05-09T12:00:39.951Z,95.60
2024-05-09T12:03:10.007Z,96.30
2024-05-09T12:05:38.175Z,95.60
2024-05-09T12:08:09.528Z,95.00
2024-05-09T12:10:37.460Z,93.10
2024-05-09T12:13:11.826Z,91.90
2024-05-09T12:15:39.445Z,91.70
2024-05-09T12:18:10.234Z,91.70
2024-05-09T12:20:39.875Z,90.90
2024-05-09T12:23:12.090Z,90.10
2024-05-09T12:25:40.192Z,87.60
2024-05-09T12:28:13.971Z,85.70
2024-05-09T12:30:41.887Z,83.40
2024-05-09T12:33:13.901Z,82.80
2024-05-09T12:35:45.202Z,80.10
2024-05-09T12:38:17.513Z,78.10
2024-05-09T12:40:45.103Z,77.40
2024-05-09T12:43:18.457Z,75.00
2024-05-09T12:45:46.246Z,73.40
2024-05-09T12:48:16.541Z,72.00
2024-05-09T12:50:44.413Z,73.50
2024-05-09T12:53:14.743Z,72.60
2024-05-09T12:55:48.996Z,69.10
2024-05-09T12:58:29.433Z,71.30
2024-05-09T13:00:57.170Z,69.80
2024-05-09T13:03:27.461Z,67.70
2024-05-09T13:05:55.186Z,67.10
2024-05-09T13:08:26.170Z,66.10
2024-05-09T13:10:53.613Z,65.80
2024-05-09T13:13:23.567Z,67.00
2024-05-09T13:15:54.440Z,64.60
2024-05-09T13:18:25.356Z,66.00
2024-05-09T13:20:53.316Z,64.70
2024-05-09T13:23:23.842Z,64.70
2024-05-09T13:25:51.301Z,63.20
2024-05-09T13:28:22.999Z,61.70
2024-05-09T13:30:50.856Z,60.70
2024-05-09T13:33:24.418Z,61.30
2024-05-09T13:35:54.935Z,59.00
2024-05-09T13:38:22.640Z,59.20
2024-05-09T13:40:52.850Z,59.20
2024-05-09T13:43:22.331Z,60.80
2024-05-09T13:45:54.930Z,64.10
2024-05-09T13:48:25.376Z,65.10
2024-05-09T13:50:55.478Z,62.30
2024-05-09T13:53:23.823Z,61.30
2024-05-09T13:55:54.263Z,58.90
2024-05-09T13:58:23.770Z,59.30
2024-05-09T14:00:55.184Z,58.40
2024-05-09T14:03:27.052Z,59.00
2024-05-09T14:05:57.609Z,58.10
2024-05-09T14:08:25.317Z,57.80
2024-05-09T14:11:02.137Z,57.60
2024-05-09T14:13:29.801Z,56.40
2024-05-09T14:16:00.174Z,55.90
2024-05-09T14:18:30.360Z,56.40
2024-05-09T14:21:00.878Z,55.50
2024-05-09T14:23:28.640Z,56.00
2024-05-09T14:25:59.448Z,55.40
2024-05-09T14:28:27.926Z,54.60
2024-05-09T14:31:01.568Z,53.40
2024-05-09T14:33:31.666Z,53.60
2024-05-09T14:36:02.205Z,53.60
2024-05-09T14:38:30.646Z,53.20
2024-05-09T14:41:01.255Z,54.20
2024-05-09T14:43:29.195Z,53.60
2024-05-09T14:45:59.400Z,53.20
2024-05-09T14:48:27.257Z,53.10
2024-05-09T14:51:00.045Z,53.00
2024-05-09T14:53:28.385Z,52.60
2024-05-09T14:55:58.359Z,52.90
2024-05-09T14:58:26.705Z,53.10
2024-05-09T15:00:57.834Z,53.00
2024-05-09T15:03:25.847Z,54.60
2024-05-09T15:05:55.882Z,55.00
2024-05-09T15:08:26.406Z,53.90
2024-05-09T15:10:56.407Z,55.30
2024-05-09T15:13:25.230Z,57.00
2024-05-09T15:15:56.232Z,58.40
2024-05-09T15:18:23.827Z,60.10
2024-05-09T15:20:53.966Z,61.20
2024-05-09T15:23:21.384Z,63.20
2024-05-09T15:25:54.606Z,64.70
2024-05-09T15:28:23.068Z,65.80
2024-05-09T15:30:53.399Z,66.60
2024-05-09T15:33:20.738Z,66.50
2024-05-09T15:35:50.635Z,68.40
2024-05-09T15:38:21.403Z,68.60
2024-05-09T15:43:21.627Z,68.80
2024-05-09T15:45:52.063Z,69.50
2024-05-09T15:48:20.964Z,69.70
2024-05-09T15:50:51.217Z,71.60
2024-05-09T15:53:20.813Z,72.30
2024-05-09T15:55:53.457Z,72.50
2024-05-09T15:58:22.211Z,72.70
2024-05-09T16:00:52.721Z,71.50
2024-05-09T16:03:21.294Z,72.40
2024-05-09T16:05:55.895Z,73.10
2024-05-09T16:08:23.873Z,73.50
2024-05-09T16:10:56.682Z,74.30
2024-05-09T16:13:24.765Z,73.80
2024-05-09T16:15:54.847Z,74.00
2024-05-09T16:18:23.128Z,73.90
2024-05-09T16:20:59.461Z,74.30
2024-05-09T16:23:28.562Z,75.50
2024-05-09T16:26:01.927Z,75.40
2024-05-09T16:28:29.598Z,76.20
2024-05-09T16:31:01.532Z,76.20
2024-05-09T16:33:30.262Z,76.40
2024-05-09T16:36:01.858Z,76.90
2024-05-09T16:38:29.118Z,77.60
2024-05-09T16:41:03.282Z,77.40
2024-05-09T16:43:30.614Z,76.80
2024-05-09T16:46:00.795Z,78.00
2024-05-09T16:48:28.384Z,77.60
2024-05-09T16:50:58.378Z,77.20
2024-05-09T16:53:26.392Z,78.80
2024-05-09T16:55:56.606Z,78.40
2024-05-09T16:58:27.682Z,78.90
2024-05-09T17:00:57.968Z,79.30
2024-05-09T17:03:26.914Z,78.80
2024-05-09T17:05:57.259Z,78.80
2024-05-09T17:08:24.914Z,78.80
2024-05-09T17:10:55.553Z,80.20
2024-05-09T17:13:27.200Z,79.40
2024-05-09T17:16:00.265Z,79.90
2024-05-09T17:18:31.848Z,79.90
2024-05-09T17:21:00.368Z,81.00
2024-05-09T17:23:34.326Z,81.40
2024-05-09T17:26:02.777Z,80.90
2024-05-09T17:28:32.981Z,81.50
2024-05-09T17:31:04.002Z,81.30
2024-05-09T17:33:34.466Z,82.10
2024-05-09T17:36:02.286Z,82.40
2024-05-09T17:38:32.758Z,83.20
2024-05-09T17:41:00.224Z,82.30
2024-05-09T17:43:30.459Z,82.50
2024-05-09T17:45:58.524Z,82.80
2024-05-09T17:48:31.486Z,83.40
2024-05-09T17:50:59.853Z,83.30
2024-05-09T17:53:29.659Z,83.20
2024-05-09T17:55:59.359Z,83.30
2024-05-09T17:58:30.082Z,83.90
2024-05-09T18:00:57.754Z,84.60
2024-05-09T18:03:30.753Z,84.90
2024-05-09T18:05:58.514Z,85.70
2024-05-09T18:08:28.574Z,87.00
2024-05-09T18:10:56.634Z,87.50
2024-05-09T18:13:27.443Z,88.30
2024-05-09T18:15:55.116Z,89.40
2024-05-09T18:18:26.466Z,89.20
2024-05-09T18:20:56.486Z,89.10
2024-05-09T18:23:26.742Z,89.50
2024-05-09T18:25:55.532Z,89.90
2024-05-09T18:28:26.642Z,90.10
2024-05-09T18:30:54.251Z,90.10
2024-05-09T18:33:24.585Z,90.10
2024-05-09T18:35:52.214Z,90.20
2024-05-09T18:38:27.094Z,90.40
2024-05-09T18:40:55.043Z,90.90
2024-05-09T18:43:31.132Z,91.30
2024-05-09T18:46:04.156Z,92.00
2024-05-09T18:48:34.347Z,92.40
2024-05-09T18:51:02.066Z,93.10
2024-05-09T18:53:35.295Z,93.90
2024-05-09T18:56:02.843Z,94.60
2024-05-09T18:58:33.164Z,95.30
2024-05-09T19:01:02.122Z,95.60
2024-05-09T19:03:32.444Z,96.20
2024-05-09T19:06:00.428Z,96.70
2024-05-09T19:08:31.733Z,97.10
2024-05-09T19:11:02.079Z,97.50
2024-05-09T19:13:32.807Z,97.60
2024-05-09T19:16:00.705Z,98.00
2024-05-09T19:18:32.522Z,98.20
2024-05-09T19:21:00.082Z,98.90
2024-05-09T19:23:32.540Z,99.00
2024-05-09T19:26:03.348Z,99.30
2024-05-09T19:28:33.435Z,99.40
2024-05-09T19:31:01.661Z,99.80
2024-05-09T19:33:32.211Z,99.90
2024-05-09T19:36:03.567Z,99.90
2024-05-09T19:38:33.974Z,99.90
2024-05-09T19:41:05.656Z,99.90
2024-05-09T19:43:36.585Z,99.90
2024-05-09T19:46:04.362Z,99.90
2024-05-09T19:48:34.734Z,99.90
2024-05-09T19:51:03.351Z,99.90
2024-05-09T19:53:34.452Z,99.90
2024-05-09T19:56:05.196Z,99.90
2024-05-09T19:58:35.337Z,99.90
2024-05-09T20:01:03.040Z,99.90
2024-05-09T20:03:37.238Z,99.90
2024-05-09T20:06:05.096Z,99.90
2024-05-09T20:08:36.048Z,99.90
2024-05-09T20:11:06.886Z,99.90
2024-05-09T20:13:37.261Z,99.90
2024-05-09T20:16:05.657Z,99.90
2024-05-09T20:18:36.062Z,99.90
2024-05-09T20:21:04.295Z,99.90
2024-05-09T20:23:34.322Z,99.90
2024-05-09T20:26:02.112Z,99.90
2024-05-09T20:28:35.642Z,99.90
2024-05-09T20:31:03.987Z,99.90
2024-05-09T20:33:34.057Z,99.90
2024-05-09T20:36:02.489Z,99.90
2024-05-09T20:38:32.982Z,99.90
2024-05-09T20:41:01.263Z,99.90
2024-05-09T20:43:34.001Z,99.90
2024-05-09T20:46:03.668Z,99.90
2024-05-09T20:48:34.279Z,99.90
2024-05-09T20:51:02.419Z,99.90
2024-05-09T20:53:32.740Z,99.90
2024-05-09T20:56:01.769Z,99.90
2024-05-09T20:58:35.001Z,99.90
2024-05-09T21:01:04.119Z,99.90
2024-05-09T21:03:38.283Z,99.90
2024-05-09T21:06:06.398Z,99.90
2024-05-09T21:08:36.538Z,99.90
2024-05-09T21:11:03.939Z,99.90
2024-05-09T21:13:37.115Z,99.90
2024-05-09T21:16:06.341Z,99.90
2024-05-09T21:18:36.583Z,99.90
2024-05-09T21:21:05.898Z,99.90
2024-05-09T21:23:36.214Z,99.90
2024-05-09T21:26:04.419Z,99.90
2024-05-09T21:28:37.051Z,99.90
2024-05-09T21:31:05.303Z,99.90
2024-05-09T21:33:37.204Z,99.90
2024-05-09T21:36:05.908Z,99.90
2024-05-09T21:38:37.347Z,99.90
2024-05-09T21:41:07.380Z,99.90
2024-05-09T21:43:41.770Z,99.90
2024-05-09T21:46:09.499Z,99.90
2024-05-09T21:48:39.679Z,99.90
2024-05-09T21:51:29.215Z,99.90
2024-05-09T21:53:59.564Z,99.90
2024-05-09T21:56:27.390Z,99.90
2024-05-09T21:59:00.054Z,99.90
2024-05-09T22:01:27.499Z,99.90
2024-05-09T22:03:57.547Z,99.90
2024-05-09T22:06:25.574Z,99.90
2024-05-09T22:08:55.714Z,99.90
2024-05-09T22:11:23.579Z,99.90
2024-05-09T22:13:53.898Z,99.90
2024-05-09T22:16:24.744Z,99.90
2024-05-09T22:18:54.941Z,99.90
2024-05-09T22:21:22.608Z,99.90
2024-05-09T22:23:52.994Z,99.90
2024-05-09T22:26:20.912Z,99.90
2024-05-09T22:28:50.744Z,99.90
2024-05-09T22:31:18.570Z,99.90
2024-05-09T22:33:51.987Z,99.90
2024-05-09T22:36:19.475Z,99.90
2024-05-09T22:38:50.727Z,99.90
2024-05-09T22:41:17.982Z,99.90
2024-05-09T22:43:47.901Z,99.90
2024-05-09T22:46:15.492Z,99.90
2024-05-09T22:48:45.764Z,99.90
2024-05-09T22:51:16.163Z,99.90
2024-05-09T22:53:46.450Z,99.90
2024-05-09T22:56:15.204Z,99.90
2024-05-09T22:58:45.059Z,99.90
2024-05-09T23:01:15.540Z,99.90
2024-05-09T23:03:45.679Z,99.90
2024-05-09T23:06:16.070Z,99.90
2024-05-09T23:08:46.745Z,99.90
2024-05-09T23:11:14.067Z,99.90
2024-05-09T23:13:44.241Z,99.90
2024-05-09T23:16:11.817Z,99.90
2024-05-09T23:18:42.084Z,99.90
2024-05-09T23:21:09.501Z,99.90
2024-05-09T23:23:42.134Z,99.90
2024-05-09T23:26:09.730Z,99.90
2024-05-09T23:28:39.712Z,99.90
2024-05-09T23:31:07.194Z,99.90
2024-05-09T23:33:37.621Z,99.90
2024-05-09T23:36:06.338Z,99.90
2024-05-09T23:38:36.800Z,99.90
2024-05-09T23:41:06.852Z,99.90
2024-05-09T23:43:37.719Z,99.90
2024-05-09T23:46:05.414Z,99.90
2024-05-09T23:48:36.143Z,99.90
2024-05-09T23:51:03.958Z,99.90
2024-05-09T23:53:33.944Z,99.90
2024-05-09T23:56:01.664Z,99.90
2024-05-09T23:58:34.839Z,99.90
